sensor_id;sensor_type;location;lat;lon;timestamp;P1;durP1;ratioP1;P2;durP2;ratioP2
65924;SDS011;66010;52.084;5.412;2023-12-20T00:00:58;4.45;;;1.52;;
65924;SDS011;66010;52.084;5.412;2023-12-20T00:03:25;6.00;;;1.73;;
65924;SDS011;66010;52.084;5.412;2023-12-20T00:05:51;4.28;;;1.73;;
65924;SDS011;66010;52.084;5.412;2023-12-20T00:08:18;5.50;;;1.90;;
65924;SDS011;66010;52.084;5.412;2023-12-20T00:10:45;3.88;;;1.60;;
65924;SDS011;66010;52.084;5.412;2023-12-20T00:13:11;4.78;;;1.60;;
65924;SDS011;66010;52.084;5.412;2023-12-20T00:15:38;5.60;;;1.67;;
65924;SDS011;66010;52.084;5.412;2023-12-20T00:18:04;3.92;;;1.67;;
65924;SDS011;66010;52.084;5.412;2023-12-20T00:20:31;4.70;;;1.73;;
65924;SDS011;66010;52.084;5.412;2023-12-20T00:22:58;5.50;;;1.70;;
65924;SDS011;66010;52.084;5.412;2023-12-20T00:25:24;4.25;;;1.73;;
65924;SDS011;66010;52.084;5.412;2023-12-20T00:27:51;5.32;;;1.73;;
65924;SDS011;66010;52.084;5.412;2023-12-20T00:30:18;5.13;;;1.90;;
65924;SDS011;66010;52.084;5.412;2023-12-20T00:32:44;6.63;;;2.17;;
65924;SDS011;66010;52.084;5.412;2023-12-20T00:35:13;5.95;;;1.80;;
65924;SDS011;66010;52.084;5.412;2023-12-20T00:37:40;7.10;;;2.20;;
65924;SDS011;66010;52.084;5.412;2023-12-20T00:40:06;6.65;;;2.15;;
65924;SDS011;66010;52.084;5.412;2023-12-20T00:42:33;7.07;;;1.90;;
65924;SDS011;66010;52.084;5.412;2023-12-20T00:45:00;6.88;;;2.17;;
65924;SDS011;66010;52.084;5.412;2023-12-20T00:47:26;8.20;;;2.13;;
65924;SDS011;66010;52.084;5.412;2023-12-20T00:49:54;5.95;;;2.13;;
65924;SDS011;66010;52.084;5.412;2023-12-20T00:52:21;7.28;;;2.47;;
65924;SDS011;66010;52.084;5.412;2023-12-20T00:54:49;7.28;;;2.47;;
65924;SDS011;66010;52.084;5.412;2023-12-20T00:57:15;8.48;;;2.85;;
65924;SDS011;66010;52.084;5.412;2023-12-20T00:59:42;9.75;;;3.70;;
65924;SDS011;66010;52.084;5.412;2023-12-20T01:02:08;15.60;;;4.10;;
65924;SDS011;66010;52.084;5.412;2023-12-20T01:04:36;10.20;;;3.85;;
65924;SDS011;66010;52.084;5.412;2023-12-20T01:07:02;10.98;;;3.72;;
65924;SDS011;66010;52.084;5.412;2023-12-20T01:09:32;10.35;;;4.13;;
65924;SDS011;66010;52.084;5.412;2023-12-20T01:11:58;10.52;;;3.50;;
65924;SDS011;66010;52.084;5.412;2023-12-20T01:14:25;12.55;;;3.90;;
65924;SDS011;66010;52.084;5.412;2023-12-20T01:16:52;8.55;;;3.28;;
65924;SDS011;66010;52.084;5.412;2023-12-20T01:19:19;10.50;;;3.75;;
65924;SDS011;66010;52.084;5.412;2023-12-20T01:21:45;8.68;;;3.42;;
65924;SDS011;66010;52.084;5.412;2023-12-20T01:24:12;10.73;;;3.72;;
65924;SDS011;66010;52.084;5.412;2023-12-20T01:26:38;10.00;;;3.50;;
65924;SDS011;66010;52.084;5.412;2023-12-20T01:29:05;8.98;;;3.20;;
65924;SDS011;66010;52.084;5.412;2023-12-20T01:31:32;9.60;;;3.20;;
65924;SDS011;66010;52.084;5.412;2023-12-20T01:33:58;10.43;;;3.20;;
65924;SDS011;66010;52.084;5.412;2023-12-20T01:36:25;7.90;;;2.72;;
65924;SDS011;66010;52.084;5.412;2023-12-20T01:38:51;8.90;;;3.20;;
65924;SDS011;66010;52.084;5.412;2023-12-20T01:41:18;8.82;;;3.05;;
65924;SDS011;66010;52.084;5.412;2023-12-20T01:43:44;9.48;;;2.97;;
65924;SDS011;66010;52.084;5.412;2023-12-20T01:46:17;9.18;;;2.85;;
65924;SDS011;66010;52.084;5.412;2023-12-20T01:48:48;11.05;;;2.80;;
65924;SDS011;66010;52.084;5.412;2023-12-20T01:51:15;9.50;;;2.65;;
65924;SDS011;66010;52.084;5.412;2023-12-20T01:53:41;7.20;;;2.72;;
65924;SDS011;66010;52.084;5.412;2023-12-20T01:56:08;7.97;;;2.58;;
65924;SDS011;66010;52.084;5.412;2023-12-20T01:58:37;7.35;;;2.85;;
65924;SDS011;66010;52.084;5.412;2023-12-20T02:01:05;8.13;;;2.60;;
65924;SDS011;66010;52.084;5.412;2023-12-20T02:03:32;7.85;;;2.70;;
65924;SDS011;66010;52.084;5.412;2023-12-20T02:05:58;7.47;;;2.55;;
65924;SDS011;66010;52.084;5.412;2023-12-20T02:08:25;9.30;;;2.58;;
65924;SDS011;66010;52.084;5.412;2023-12-20T02:10:51;7.47;;;2.50;;
65924;SDS011;66010;52.084;5.412;2023-12-20T02:13:18;7.45;;;2.15;;
65924;SDS011;66010;52.084;5.412;2023-12-20T02:15:45;7.25;;;2.40;;
65924;SDS011;66010;52.084;5.412;2023-12-20T02:18:11;7.85;;;2.20;;
65924;SDS011;66010;52.084;5.412;2023-12-20T02:20:41;6.80;;;2.33;;
65924;SDS011;66010;52.084;5.412;2023-12-20T02:23:08;8.50;;;2.58;;
65924;SDS011;66010;52.084;5.412;2023-12-20T02:25:35;6.80;;;2.28;;
65924;SDS011;66010;52.084;5.412;2023-12-20T02:28:01;7.80;;;2.40;;
65924;SDS011;66010;52.084;5.412;2023-12-20T02:30:28;9.35;;;2.40;;
65924;SDS011;66010;52.084;5.412;2023-12-20T02:32:55;9.13;;;2.40;;
65924;SDS011;66010;52.084;5.412;2023-12-20T02:35:22;7.32;;;2.08;;
65924;SDS011;66010;52.084;5.412;2023-12-20T02:37:49;8.93;;;2.28;;
65924;SDS011;66010;52.084;5.412;2023-12-20T02:40:15;8.50;;;2.58;;
65924;SDS011;66010;52.084;5.412;2023-12-20T02:42:42;7.43;;;2.30;;
65924;SDS011;66010;52.084;5.412;2023-12-20T02:45:09;6.03;;;2.03;;
65924;SDS011;66010;52.084;5.412;2023-12-20T02:47:35;7.82;;;2.00;;
65924;SDS011;66010;52.084;5.412;2023-12-20T02:50:02;7.00;;;2.00;;
65924;SDS011;66010;52.084;5.412;2023-12-20T02:52:29;8.05;;;2.13;;
65924;SDS011;66010;52.084;5.412;2023-12-20T02:54:56;6.53;;;2.00;;
65924;SDS011;66010;52.084;5.412;2023-12-20T02:57:22;6.53;;;2.00;;
65924;SDS011;66010;52.084;5.412;2023-12-20T02:59:49;6.80;;;2.00;;
65924;SDS011;66010;52.084;5.412;2023-12-20T03:02:15;7.13;;;2.20;;
65924;SDS011;66010;52.084;5.412;2023-12-20T03:04:42;7.55;;;2.03;;
65924;SDS011;66010;52.084;5.412;2023-12-20T03:07:08;8.00;;;1.90;;
65924;SDS011;66010;52.084;5.412;2023-12-20T03:09:35;5.95;;;1.90;;
65924;SDS011;66010;52.084;5.412;2023-12-20T03:12:22;6.45;;;1.73;;
65924;SDS011;66010;52.084;5.412;2023-12-20T03:14:49;7.38;;;2.00;;
65924;SDS011;66010;52.084;5.412;2023-12-20T03:17:16;6.90;;;1.80;;
65924;SDS011;66010;52.084;5.412;2023-12-20T03:19:42;7.78;;;2.00;;
65924;SDS011;66010;52.084;5.412;2023-12-20T03:22:09;7.32;;;1.90;;
65924;SDS011;66010;52.084;5.412;2023-12-20T03:24:38;7.90;;;2.00;;
65924;SDS011;66010;52.084;5.412;2023-12-20T03:27:05;6.75;;;2.00;;
65924;SDS011;66010;52.084;5.412;2023-12-20T03:29:31;6.57;;;1.77;;
65924;SDS011;66010;52.084;5.412;2023-12-20T03:31:58;4.90;;;1.48;;
65924;SDS011;66010;52.084;5.412;2023-12-20T03:34:24;6.10;;;1.75;;
65924;SDS011;66010;52.084;5.412;2023-12-20T03:36:51;7.10;;;1.95;;
65924;SDS011;66010;52.084;5.412;2023-12-20T03:39:18;7.20;;;1.88;;
65924;SDS011;66010;52.084;5.412;2023-12-20T03:41:44;6.82;;;2.00;;
65924;SDS011;66010;52.084;5.412;2023-12-20T03:44:11;5.88;;;1.83;;
65924;SDS011;66010;52.084;5.412;2023-12-20T03:46:38;8.52;;;1.70;;
65924;SDS011;66010;52.084;5.412;2023-12-20T03:49:04;8.77;;;1.83;;
65924;SDS011;66010;52.084;5.412;2023-12-20T03:51:31;6.07;;;1.55;;
65924;SDS011;66010;52.084;5.412;2023-12-20T03:53:57;5.28;;;1.70;;
65924;SDS011;66010;52.084;5.412;2023-12-20T03:56:24;7.05;;;1.70;;
65924;SDS011;66010;52.084;5.412;2023-12-20T03:58:50;6.90;;;1.83;;
65924;SDS011;66010;52.084;5.412;2023-12-20T04:01:17;6.13;;;1.60;;
65924;SDS011;66010;52.084;5.412;2023-12-20T04:03:43;7.57;;;1.60;;
65924;SDS011;66010;52.084;5.412;2023-12-20T04:06:10;6.55;;;1.67;;
65924;SDS011;66010;52.084;5.412;2023-12-20T04:08:42;7.88;;;1.92;;
65924;SDS011;66010;52.084;5.412;2023-12-20T04:11:09;7.72;;;1.60;;
65924;SDS011;66010;52.084;5.412;2023-12-20T04:13:35;5.43;;;1.42;;
65924;SDS011;66010;52.084;5.412;2023-12-20T04:16:02;6.10;;;1.58;;
65924;SDS011;66010;52.084;5.412;2023-12-20T04:18:28;6.93;;;1.70;;
65924;SDS011;66010;52.084;5.412;2023-12-20T04:20:55;6.10;;;1.60;;
65924;SDS011;66010;52.084;5.412;2023-12-20T04:23:21;9.30;;;1.65;;
65924;SDS011;66010;52.084;5.412;2023-12-20T04:25:48;7.13;;;1.80;;
65924;SDS011;66010;52.084;5.412;2023-12-20T04:28:14;6.72;;;1.75;;
65924;SDS011;66010;52.084;5.412;2023-12-20T04:30:41;8.38;;;1.98;;
65924;SDS011;66010;52.084;5.412;2023-12-20T04:33:08;6.63;;;1.75;;
65924;SDS011;66010;52.084;5.412;2023-12-20T04:35:35;7.13;;;1.65;;
65924;SDS011;66010;52.084;5.412;2023-12-20T04:38:01;7.85;;;1.63;;
65924;SDS011;66010;52.084;5.412;2023-12-20T04:40:28;5.57;;;1.48;;
65924;SDS011;66010;52.084;5.412;2023-12-20T04:42:54;7.18;;;1.75;;
65924;SDS011;66010;52.084;5.412;2023-12-20T04:45:21;8.23;;;1.83;;
65924;SDS011;66010;52.084;5.412;2023-12-20T04:47:47;6.43;;;1.60;;
65924;SDS011;66010;52.084;5.412;2023-12-20T04:50:14;5.72;;;1.60;;
65924;SDS011;66010;52.084;5.412;2023-12-20T04:52:41;7.95;;;2.00;;
65924;SDS011;66010;52.084;5.412;2023-12-20T04:55:08;10.40;;;1.83;;
65924;SDS011;66010;52.084;5.412;2023-12-20T04:57:35;6.63;;;1.63;;
65924;SDS011;66010;52.084;5.412;2023-12-20T05:00:01;8.93;;;1.80;;
65924;SDS011;66010;52.084;5.412;2023-12-20T05:02:31;6.47;;;1.58;;
65924;SDS011;66010;52.084;5.412;2023-12-20T05:04:58;5.95;;;1.48;;
65924;SDS011;66010;52.084;5.412;2023-12-20T05:07:25;10.13;;;1.88;;
65924;SDS011;66010;52.084;5.412;2023-12-20T05:09:51;6.32;;;1.60;;
65924;SDS011;66010;52.084;5.412;2023-12-20T05:12:18;6.78;;;1.35;;
65924;SDS011;66010;52.084;5.412;2023-12-20T05:14:46;5.38;;;1.35;;
65924;SDS011;66010;52.084;5.412;2023-12-20T05:17:12;6.57;;;1.60;;
65924;SDS011;66010;52.084;5.412;2023-12-20T05:19:39;6.03;;;1.50;;
65924;SDS011;66010;52.084;5.412;2023-12-20T05:22:05;8.07;;;1.58;;
65924;SDS011;66010;52.084;5.412;2023-12-20T05:24:32;8.23;;;1.73;;
65924;SDS011;66010;52.084;5.412;2023-12-20T05:26:59;5.15;;;1.38;;
65924;SDS011;66010;52.084;5.412;2023-12-20T05:29:25;8.27;;;1.70;;
65924;SDS011;66010;52.084;5.412;2023-12-20T05:31:52;5.60;;;1.42;;
65924;SDS011;66010;52.084;5.412;2023-12-20T05:34:19;5.85;;;1.45;;
65924;SDS011;66010;52.084;5.412;2023-12-20T05:36:46;5.95;;;1.55;;
65924;SDS011;66010;52.084;5.412;2023-12-20T05:39:13;5.40;;;1.30;;
65924;SDS011;66010;52.084;5.412;2023-12-20T05:41:39;5.63;;;1.50;;
65924;SDS011;66010;52.084;5.412;2023-12-20T05:44:06;5.35;;;1.30;;
65924;SDS011;66010;52.084;5.412;2023-12-20T05:46:32;7.57;;;1.50;;
65924;SDS011;66010;52.084;5.412;2023-12-20T05:48:59;6.38;;;1.58;;
65924;SDS011;66010;52.084;5.412;2023-12-20T05:51:26;5.75;;;1.33;;
65924;SDS011;66010;52.084;5.412;2023-12-20T05:53:52;5.60;;;1.60;;
65924;SDS011;66010;52.084;5.412;2023-12-20T05:56:19;4.97;;;1.55;;
65924;SDS011;66010;52.084;5.412;2023-12-20T05:58:45;5.70;;;1.60;;
65924;SDS011;66010;52.084;5.412;2023-12-20T06:01:13;6.78;;;1.60;;
65924;SDS011;66010;52.084;5.412;2023-12-20T06:03:41;5.85;;;1.38;;
65924;SDS011;66010;52.084;5.412;2023-12-20T06:06:08;6.70;;;1.45;;
65924;SDS011;66010;52.084;5.412;2023-12-20T06:08:42;6.45;;;1.42;;
65924;SDS011;66010;52.084;5.412;2023-12-20T06:11:10;7.53;;;1.58;;
65924;SDS011;66010;52.084;5.412;2023-12-20T06:13:36;6.32;;;1.55;;
65924;SDS011;66010;52.084;5.412;2023-12-20T06:16:04;4.57;;;1.40;;
65924;SDS011;66010;52.084;5.412;2023-12-20T06:18:31;7.78;;;1.80;;
65924;SDS011;66010;52.084;5.412;2023-12-20T06:20:58;6.78;;;1.60;;
65924;SDS011;66010;52.084;5.412;2023-12-20T06:23:25;5.13;;;1.40;;
65924;SDS011;66010;52.084;5.412;2023-12-20T06:25:51;8.40;;;1.70;;
65924;SDS011;66010;52.084;5.412;2023-12-20T06:28:18;5.07;;;1.60;;
65924;SDS011;66010;52.084;5.412;2023-12-20T06:30:44;5.25;;;1.38;;
65924;SDS011;66010;52.084;5.412;2023-12-20T06:33:13;6.32;;;1.25;;
65924;SDS011;66010;52.084;5.412;2023-12-20T06:35:40;6.60;;;1.52;;
65924;SDS011;66010;52.084;5.412;2023-12-20T06:38:06;4.28;;;1.30;;
65924;SDS011;66010;52.084;5.412;2023-12-20T06:40:33;6.90;;;1.50;;
65924;SDS011;66010;52.084;5.412;2023-12-20T06:42:59;5.35;;;1.45;;
65924;SDS011;66010;52.084;5.412;2023-12-20T06:45:37;7.03;;;1.48;;
65924;SDS011;66010;52.084;5.412;2023-12-20T06:48:04;6.47;;;1.40;;
65924;SDS011;66010;52.084;5.412;2023-12-20T06:50:31;5.82;;;1.40;;
65924;SDS011;66010;52.084;5.412;2023-12-20T06:52:57;5.80;;;1.60;;
65924;SDS011;66010;52.084;5.412;2023-12-20T06:55:24;5.65;;;1.55;;
65924;SDS011;66010;52.084;5.412;2023-12-20T06:57:51;5.25;;;1.20;;
65924;SDS011;66010;52.084;5.412;2023-12-20T07:00:17;8.27;;;1.60;;
65924;SDS011;66010;52.084;5.412;2023-12-20T07:02:46;6.70;;;1.58;;
65924;SDS011;66010;52.084;5.412;2023-12-20T07:05:16;5.88;;;1.33;;
65924;SDS011;66010;52.084;5.412;2023-12-20T07:07:42;7.53;;;1.50;;
65924;SDS011;66010;52.084;5.412;2023-12-20T07:10:09;5.68;;;1.20;;
65924;SDS011;66010;52.084;5.412;2023-12-20T07:12:39;5.90;;;1.40;;
65924;SDS011;66010;52.084;5.412;2023-12-20T07:15:07;6.25;;;1.30;;
65924;SDS011;66010;52.084;5.412;2023-12-20T07:17:33;6.95;;;1.60;;
65924;SDS011;66010;52.084;5.412;2023-12-20T07:20:00;6.57;;;1.40;;
65924;SDS011;66010;52.084;5.412;2023-12-20T07:22:30;6.03;;;1.58;;
65924;SDS011;66010;52.084;5.412;2023-12-20T07:25:00;5.97;;;1.50;;
65924;SDS011;66010;52.084;5.412;2023-12-20T07:27:27;7.53;;;1.67;;
65924;SDS011;66010;52.084;5.412;2023-12-20T07:29:53;5.53;;;1.40;;
65924;SDS011;66010;52.084;5.412;2023-12-20T07:32:20;6.30;;;1.45;;
65924;SDS011;66010;52.084;5.412;2023-12-20T07:34:46;6.07;;;1.38;;
65924;SDS011;66010;52.084;5.412;2023-12-20T07:37:14;5.72;;;1.40;;
65924;SDS011;66010;52.084;5.412;2023-12-20T07:39:41;5.80;;;1.23;;
65924;SDS011;66010;52.084;5.412;2023-12-20T07:42:08;5.72;;;1.20;;
65924;SDS011;66010;52.084;5.412;2023-12-20T07:44:35;6.55;;;1.40;;
65924;SDS011;66010;52.084;5.412;2023-12-20T07:47:04;4.88;;;1.40;;
65924;SDS011;66010;52.084;5.412;2023-12-20T07:49:31;6.80;;;1.40;;
65924;SDS011;66010;52.084;5.412;2023-12-20T07:51:58;7.13;;;1.50;;
65924;SDS011;66010;52.084;5.412;2023-12-20T07:54:25;6.72;;;1.70;;
65924;SDS011;66010;52.084;5.412;2023-12-20T07:56:52;8.65;;;1.48;;
65924;SDS011;66010;52.084;5.412;2023-12-20T07:59:18;8.82;;;1.60;;
65924;SDS011;66010;52.084;5.412;2023-12-20T08:01:57;9.65;;;1.42;;
65924;SDS011;66010;52.084;5.412;2023-12-20T08:04:24;6.75;;;1.63;;
65924;SDS011;66010;52.084;5.412;2023-12-20T08:06:51;6.35;;;1.40;;
65924;SDS011;66010;52.084;5.412;2023-12-20T08:09:18;6.90;;;1.67;;
65924;SDS011;66010;52.084;5.412;2023-12-20T08:11:47;6.22;;;1.40;;
65924;SDS011;66010;52.084;5.412;2023-12-20T08:14:14;7.35;;;1.63;;
65924;SDS011;66010;52.084;5.412;2023-12-20T08:16:42;6.60;;;1.65;;
65924;SDS011;66010;52.084;5.412;2023-12-20T08:19:09;6.07;;;1.30;;
65924;SDS011;66010;52.084;5.412;2023-12-20T08:21:36;6.32;;;1.30;;
65924;SDS011;66010;52.084;5.412;2023-12-20T08:24:04;6.63;;;1.20;;
65924;SDS011;66010;52.084;5.412;2023-12-20T08:26:32;6.13;;;1.48;;
65924;SDS011;66010;52.084;5.412;2023-12-20T08:28:59;6.60;;;1.50;;
65924;SDS011;66010;52.084;5.412;2023-12-20T08:31:28;4.88;;;1.30;;
65924;SDS011;66010;52.084;5.412;2023-12-20T08:33:55;5.53;;;1.42;;
65924;SDS011;66010;52.084;5.412;2023-12-20T08:36:22;6.70;;;1.50;;
65924;SDS011;66010;52.084;5.412;2023-12-20T08:38:49;6.43;;;1.30;;
65924;SDS011;66010;52.084;5.412;2023-12-20T08:41:17;7.43;;;1.50;;
65924;SDS011;66010;52.084;5.412;2023-12-20T08:43:44;7.50;;;1.45;;
65924;SDS011;66010;52.084;5.412;2023-12-20T08:46:10;7.05;;;1.45;;
65924;SDS011;66010;52.084;5.412;2023-12-20T08:48:38;6.38;;;1.30;;
65924;SDS011;66010;52.084;5.412;2023-12-20T08:51:05;6.57;;;1.42;;
65924;SDS011;66010;52.084;5.412;2023-12-20T08:53:34;9.45;;;1.65;;
65924;SDS011;66010;52.084;5.412;2023-12-20T08:56:01;5.68;;;1.48;;
65924;SDS011;66010;52.084;5.412;2023-12-20T08:58:28;7.28;;;1.50;;
65924;SDS011;66010;52.084;5.412;2023-12-20T09:03:22;7.15;;;1.45;;
65924;SDS011;66010;52.084;5.412;2023-12-20T09:05:48;7.78;;;1.50;;
65924;SDS011;66010;52.084;5.412;2023-12-20T09:08:15;7.40;;;1.60;;
65924;SDS011;66010;52.084;5.412;2023-12-20T09:10:41;8.70;;;1.60;;
65924;SDS011;66010;52.084;5.412;2023-12-20T09:13:08;9.18;;;1.73;;
65924;SDS011;66010;52.084;5.412;2023-12-20T09:15:34;5.93;;;1.55;;
65924;SDS011;66010;52.084;5.412;2023-12-20T09:18:02;8.48;;;1.52;;
65924;SDS011;66010;52.084;5.412;2023-12-20T09:20:30;7.38;;;1.52;;
65924;SDS011;66010;52.084;5.412;2023-12-20T09:25:24;5.75;;;1.35;;
65924;SDS011;66010;52.084;5.412;2023-12-20T09:27:52;6.57;;;1.70;;
65924;SDS011;66010;52.084;5.412;2023-12-20T09:30:19;6.47;;;1.50;;
65924;SDS011;66010;52.084;5.412;2023-12-20T09:32:53;6.70;;;1.60;;
65924;SDS011;66010;52.084;5.412;2023-12-20T09:35:20;6.30;;;1.30;;
65924;SDS011;66010;52.084;5.412;2023-12-20T09:37:47;7.25;;;1.50;;
65924;SDS011;66010;52.084;5.412;2023-12-20T09:40:13;8.00;;;1.50;;
65924;SDS011;66010;52.084;5.412;2023-12-20T09:43:02;5.28;;;1.25;;
65924;SDS011;66010;52.084;5.412;2023-12-20T09:45:30;7.45;;;1.33;;
65924;SDS011;66010;52.084;5.412;2023-12-20T09:47:57;7.07;;;1.50;;
65924;SDS011;66010;52.084;5.412;2023-12-20T09:50:24;6.32;;;1.50;;
65924;SDS011;66010;52.084;5.412;2023-12-20T09:52:51;7.20;;;1.48;;
65924;SDS011;66010;52.084;5.412;2023-12-20T09:57:49;7.63;;;1.60;;
65924;SDS011;66010;52.084;5.412;2023-12-20T10:00:16;6.38;;;1.50;;
65924;SDS011;66010;52.084;5.412;2023-12-20T10:02:56;7.78;;;1.60;;
65924;SDS011;66010;52.084;5.412;2023-12-20T10:05:26;6.15;;;1.30;;
65924;SDS011;66010;52.084;5.412;2023-12-20T10:07:53;5.60;;;1.27;;
65924;SDS011;66010;52.084;5.412;2023-12-20T10:10:19;7.10;;;1.52;;
65924;SDS011;66010;52.084;5.412;2023-12-20T10:13:00;6.05;;;1.30;;
65924;SDS011;66010;52.084;5.412;2023-12-20T10:15:27;8.25;;;1.55;;
65924;SDS011;66010;52.084;5.412;2023-12-20T10:17:54;4.40;;;1.15;;
65924;SDS011;66010;52.084;5.412;2023-12-20T10:20:25;8.70;;;1.70;;
65924;SDS011;66010;52.084;5.412;2023-12-20T10:22:52;7.70;;;1.33;;
65924;SDS011;66010;52.084;5.412;2023-12-20T10:25:22;6.22;;;1.52;;
65924;SDS011;66010;52.084;5.412;2023-12-20T10:27:49;4.90;;;1.50;;
65924;SDS011;66010;52.084;5.412;2023-12-20T10:30:16;5.25;;;1.27;;
65924;SDS011;66010;52.084;5.412;2023-12-20T10:32:43;5.68;;;1.48;;
65924;SDS011;66010;52.084;5.412;2023-12-20T10:35:09;7.22;;;1.60;;
65924;SDS011;66010;52.084;5.412;2023-12-20T10:37:37;5.43;;;1.33;;
65924;SDS011;66010;52.084;5.412;2023-12-20T10:40:04;6.30;;;1.42;;
65924;SDS011;66010;52.084;5.412;2023-12-20T10:42:32;4.90;;;1.30;;
65924;SDS011;66010;52.084;5.412;2023-12-20T10:45:00;5.93;;;1.40;;
65924;SDS011;66010;52.084;5.412;2023-12-20T10:47:26;5.22;;;1.48;;
65924;SDS011;66010;52.084;5.412;2023-12-20T10:52:22;6.10;;;1.48;;
65924;SDS011;66010;52.084;5.412;2023-12-20T10:54:49;8.05;;;1.60;;
65924;SDS011;66010;52.084;5.412;2023-12-20T10:57:16;6.63;;;1.48;;
65924;SDS011;66010;52.084;5.412;2023-12-20T10:59:44;5.03;;;1.58;;
65924;SDS011;66010;52.084;5.412;2023-12-20T11:02:16;6.22;;;1.38;;
65924;SDS011;66010;52.084;5.412;2023-12-20T11:04:59;4.05;;;1.33;;
65924;SDS011;66010;52.084;5.412;2023-12-20T11:07:29;7.53;;;1.60;;
65924;SDS011;66010;52.084;5.412;2023-12-20T11:09:59;6.80;;;1.42;;
65924;SDS011;66010;52.084;5.412;2023-12-20T11:12:42;4.93;;;1.30;;
65924;SDS011;66010;52.084;5.412;2023-12-20T11:15:12;8.02;;;1.55;;
65924;SDS011;66010;52.084;5.412;2023-12-20T11:17:40;7.22;;;1.80;;
65924;SDS011;66010;52.084;5.412;2023-12-20T11:20:07;5.35;;;1.45;;
65924;SDS011;66010;52.084;5.412;2023-12-20T11:22:37;5.38;;;1.45;;
65924;SDS011;66010;52.084;5.412;2023-12-20T11:27:35;3.55;;;1.10;;
65924;SDS011;66010;52.084;5.412;2023-12-20T11:30:04;6.28;;;1.48;;
65924;SDS011;66010;52.084;5.412;2023-12-20T11:32:35;7.05;;;1.45;;
65924;SDS011;66010;52.084;5.412;2023-12-20T11:37:35;5.07;;;1.25;;
65924;SDS011;66010;52.084;5.412;2023-12-20T11:40:06;4.72;;;1.33;;
65924;SDS011;66010;52.084;5.412;2023-12-20T11:45:10;5.53;;;1.58;;
65924;SDS011;66010;52.084;5.412;2023-12-20T11:47:36;5.53;;;1.35;;
65924;SDS011;66010;52.084;5.412;2023-12-20T11:50:04;6.07;;;1.23;;
65924;SDS011;66010;52.084;5.412;2023-12-20T11:52:31;5.53;;;1.33;;
65924;SDS011;66010;52.084;5.412;2023-12-20T11:54:58;3.53;;;1.20;;
65924;SDS011;66010;52.084;5.412;2023-12-20T11:57:24;5.00;;;1.25;;
65924;SDS011;66010;52.084;5.412;2023-12-20T11:59:53;6.40;;;1.30;;
65924;SDS011;66010;52.084;5.412;2023-12-20T12:02:20;4.78;;;1.33;;
65924;SDS011;66010;52.084;5.412;2023-12-20T12:04:48;5.05;;;1.30;;
65924;SDS011;66010;52.084;5.412;2023-12-20T12:07:15;4.88;;;1.50;;
65924;SDS011;66010;52.084;5.412;2023-12-20T12:09:42;5.40;;;1.35;;
65924;SDS011;66010;52.084;5.412;2023-12-20T12:12:08;4.82;;;1.40;;
65924;SDS011;66010;52.084;5.412;2023-12-20T12:14:39;5.88;;;1.30;;
65924;SDS011;66010;52.084;5.412;2023-12-20T12:19:33;4.65;;;1.27;;
65924;SDS011;66010;52.084;5.412;2023-12-20T12:22:06;5.28;;;1.33;;
65924;SDS011;66010;52.084;5.412;2023-12-20T12:24:37;6.35;;;1.40;;
65924;SDS011;66010;52.084;5.412;2023-12-20T12:27:05;5.55;;;1.20;;
65924;SDS011;66010;52.084;5.412;2023-12-20T12:29:32;6.93;;;1.33;;
65924;SDS011;66010;52.084;5.412;2023-12-20T12:31:59;4.70;;;1.20;;
65924;SDS011;66010;52.084;5.412;2023-12-20T12:34:29;4.35;;;1.13;;
65924;SDS011;66010;52.084;5.412;2023-12-20T12:36:56;4.88;;;1.10;;
65924;SDS011;66010;52.084;5.412;2023-12-20T12:41:51;4.97;;;1.30;;
65924;SDS011;66010;52.084;5.412;2023-12-20T12:44:18;5.20;;;1.33;;
65924;SDS011;66010;52.084;5.412;2023-12-20T12:46:48;4.93;;;1.20;;
65924;SDS011;66010;52.084;5.412;2023-12-20T12:49:17;5.07;;;1.17;;
65924;SDS011;66010;52.084;5.412;2023-12-20T12:51:44;6.30;;;1.27;;
65924;SDS011;66010;52.084;5.412;2023-12-20T12:54:11;4.65;;;1.10;;
65924;SDS011;66010;52.084;5.412;2023-12-20T12:56:39;5.68;;;1.20;;
65924;SDS011;66010;52.084;5.412;2023-12-20T12:59:06;6.65;;;1.42;;
65924;SDS011;66010;52.084;5.412;2023-12-20T13:01:32;4.18;;;1.20;;
65924;SDS011;66010;52.084;5.412;2023-12-20T13:03:59;7.22;;;1.33;;
65924;SDS011;66010;52.084;5.412;2023-12-20T13:06:28;5.75;;;1.17;;
65924;SDS011;66010;52.084;5.412;2023-12-20T13:08:54;5.25;;;1.20;;
65924;SDS011;66010;52.084;5.412;2023-12-20T13:11:21;5.55;;;1.35;;
65924;SDS011;66010;52.084;5.412;2023-12-20T13:13:48;4.40;;;1.20;;
65924;SDS011;66010;52.084;5.412;2023-12-20T13:16:14;5.30;;;1.35;;
65924;SDS011;66010;52.084;5.412;2023-12-20T13:18:41;5.72;;;1.17;;
65924;SDS011;66010;52.084;5.412;2023-12-20T13:21:09;6.55;;;1.13;;
65924;SDS011;66010;52.084;5.412;2023-12-20T13:23:36;4.95;;;1.30;;
65924;SDS011;66010;52.084;5.412;2023-12-20T13:26:06;4.40;;;1.20;;
65924;SDS011;66010;52.084;5.412;2023-12-20T13:28:33;5.88;;;1.10;;
65924;SDS011;66010;52.084;5.412;2023-12-20T13:31:00;5.57;;;1.30;;
65924;SDS011;66010;52.084;5.412;2023-12-20T13:33:27;5.28;;;1.30;;
65924;SDS011;66010;52.084;5.412;2023-12-20T13:35:54;5.18;;;1.10;;
65924;SDS011;66010;52.084;5.412;2023-12-20T13:38:20;4.55;;;1.10;;
65924;SDS011;66010;52.084;5.412;2023-12-20T13:40:47;3.72;;;1.10;;
65924;SDS011;66010;52.084;5.412;2023-12-20T13:43:14;5.32;;;1.15;;
65924;SDS011;66010;52.084;5.412;2023-12-20T13:45:40;5.32;;;1.23;;
65924;SDS011;66010;52.084;5.412;2023-12-20T13:48:07;3.35;;;1.20;;
65924;SDS011;66010;52.084;5.412;2023-12-20T13:50:34;5.20;;;1.20;;
65924;SDS011;66010;52.084;5.412;2023-12-20T13:53:01;3.28;;;1.08;;
65924;SDS011;66010;52.084;5.412;2023-12-20T13:55:30;6.38;;;1.30;;
65924;SDS011;66010;52.084;5.412;2023-12-20T13:57:57;5.20;;;1.20;;
65924;SDS011;66010;52.084;5.412;2023-12-20T14:00:24;4.55;;;1.08;;
65924;SDS011;66010;52.084;5.412;2023-12-20T14:02:51;4.18;;;1.10;;
65924;SDS011;66010;52.084;5.412;2023-12-20T14:05:17;6.03;;;1.40;;
65924;SDS011;66010;52.084;5.412;2023-12-20T14:07:45;5.93;;;1.10;;
65924;SDS011;66010;52.084;5.412;2023-12-20T14:10:13;3.90;;;1.10;;
65924;SDS011;66010;52.084;5.412;2023-12-20T14:15:06;4.13;;;1.00;;
65924;SDS011;66010;52.084;5.412;2023-12-20T14:17:38;5.00;;;1.38;;
65924;SDS011;66010;52.084;5.412;2023-12-20T14:20:05;4.55;;;1.10;;
65924;SDS011;66010;52.084;5.412;2023-12-20T14:22:35;4.10;;;1.17;;
65924;SDS011;66010;52.084;5.412;2023-12-20T14:25:03;4.38;;;1.25;;
65924;SDS011;66010;52.084;5.412;2023-12-20T14:27:30;4.50;;;1.10;;
65924;SDS011;66010;52.084;5.412;2023-12-20T14:29:57;5.80;;;1.20;;
65924;SDS011;66010;52.084;5.412;2023-12-20T14:32:24;4.80;;;1.25;;
65924;SDS011;66010;52.084;5.412;2023-12-20T14:34:51;5.20;;;1.17;;
65924;SDS011;66010;52.084;5.412;2023-12-20T14:37:17;3.10;;;0.90;;
65924;SDS011;66010;52.084;5.412;2023-12-20T14:39:44;3.50;;;0.95;;
65924;SDS011;66010;52.084;5.412;2023-12-20T14:42:10;4.78;;;1.13;;
65924;SDS011;66010;52.084;5.412;2023-12-20T14:44:40;4.20;;;1.20;;
65924;SDS011;66010;52.084;5.412;2023-12-20T14:47:07;4.53;;;1.20;;
65924;SDS011;66010;52.084;5.412;2023-12-20T14:49:33;4.47;;;1.30;;
65924;SDS011;66010;52.084;5.412;2023-12-20T14:52:00;4.88;;;1.17;;
65924;SDS011;66010;52.084;5.412;2023-12-20T14:54:27;4.30;;;1.20;;
65924;SDS011;66010;52.084;5.412;2023-12-20T14:56:53;5.70;;;1.20;;
65924;SDS011;66010;52.084;5.412;2023-12-20T14:59:20;4.95;;;1.17;;
65924;SDS011;66010;52.084;5.412;2023-12-20T15:01:47;3.70;;;1.00;;
65924;SDS011;66010;52.084;5.412;2023-12-20T15:04:14;4.85;;;1.30;;
65924;SDS011;66010;52.084;5.412;2023-12-20T15:06:40;6.03;;;1.35;;
65924;SDS011;66010;52.084;5.412;2023-12-20T15:09:07;3.53;;;1.02;;
65924;SDS011;66010;52.084;5.412;2023-12-20T15:11:35;3.75;;;1.10;;
65924;SDS011;66010;52.084;5.412;2023-12-20T15:14:02;6.22;;;1.50;;